Time;durP1;ratioP1;P1;durP2;ratioP2;P2;SDS_P1;SDS_P2;PMS_P1;PMS_P2;Temp;Humidity;BMP_temperature;BMP_pressure;BME280_temperature;BME280_humidity;BME280_pressure;Samples;Min_cycle;Max_cycle;Signal;HPM_P1;HPM_P2
2021/11/10 00:06:37;;;;;;;101.27;42.17;;;;;;;0.06;100.00;102165.41;21088712;27;21292;-65
2021/11/10 00:16:41;;;;;;;99.13;37.67;;;;;;;-0.05;100.00;102141.69;21123118;27;20236;-66
2021/11/10 00:36:42;;;;;;;90.33;36.13;;;;;;;-0.14;100.00;102120.63;21061482;27;21153;-64
2021/11/10 00:56:41;;;;;;;99.30;40.50;;;;;;;-0.18;100.00;102096.97;21061043;27;20620;-63
2021/11/10 01:06:45;;;;;;;102.50;38.13;;;;;;;-0.20;100.00;102090.81;21057680;28;20305;-63
2021/11/10 01:36:40;;;;;;;116.40;38.63;;;;;;;-0.30;100.00;102091.63;21061319;27;20575;-62
2021/11/10 01:46:45;;;;;;;110.73;42.80;;;;;;;-0.31;100.00;102100.34;21058423;28;20296;-63
2021/11/10 01:56:49;;;;;;;120.90;45.90;;;;;;;-0.26;100.00;102082.91;21065910;28;20622;-66
2021/11/10 02:06:53;;;;;;;129.80;47.50;;;;;;;-0.20;100.00;102096.06;21038547;28;20314;-65
2021/11/10 02:16:59;;;;;;;124.80;45.37;;;;;;;-0.17;100.00;102088.22;21054022;28;20275;-65
2021/11/10 02:27:14;;;;;;;119.10;41.23;;;;;;;-0.17;100.00;102070.75;21052325;28;20230;-67
2021/11/10 02:37:20;;;;;;;105.30;37.10;;;;;;;-0.15;100.00;102069.00;21052076;27;20268;-66
2021/11/10 03:07:15;;;;;;;102.40;38.17;;;;;;;-0.12;100.00;102071.63;21064931;27;20571;-63
2021/11/10 03:17:20;;;;;;;106.60;41.10;;;;;;;-0.16;100.00;102055.88;21039551;28;20222;-61
2021/11/10 03:27:27;;;;;;;96.57;38.23;;;;;;;-0.16;100.00;102040.13;21071702;28;20230;-61
2021/11/10 03:37:35;;;;;;;114.40;42.47;;;;;;;-0.18;100.00;102044.50;21054659;28;20234;-60
2021/11/10 03:47:42;;;;;;;119.83;39.13;;;;;;;-0.24;100.00;102042.69;21053577;28;20218;-60
2021/11/10 03:57:47;;;;;;;89.47;34.60;;;;;;;-0.31;100.00;102042.63;21053775;28;20234;-63
2021/11/10 04:17:46;;;;;;;96.13;37.90;;;;;;;-0.19;100.00;102027.00;21060407;27;20597;-64
2021/11/10 04:37:47;;;;;;;102.73;38.10;;;;;;;-0.22;100.00;102012.09;20895399;28;20294;-66
2021/11/10 04:57:48;;;;;;;88.43;33.60;;;;;;;-0.32;100.00;101976.19;21060011;27;20566;-65
2021/11/10 05:17:50;;;;;;;96.67;36.70;;;;;;;-0.36;100.00;101959.53;21251597;27;20637;-66
2021/11/10 05:27:58;;;;;;;94.13;35.70;;;;;;;-0.38;100.00;101950.81;21205428;27;20212;-65
2021/11/10 05:47:59;;;;;;;91.73;37.10;;;;;;;-0.36;100.00;101943.81;20884140;27;20566;-68
2021/11/10 05:58:04;;;;;;;99.77;36.80;;;;;;;-0.34;100.00;101956.06;20864522;28;20231;-67
2021/11/10 06:08:07;;;;;;;98.17;37.43;;;;;;;-0.30;100.00;101965.72;20854470;28;20657;-67
2021/11/10 06:28:19;;;;;;;155.20;60.67;;;;;;;-0.05;100.00;101975.50;21008590;27;1397312;-62
2021/11/10 06:38:23;;;;;;;202.93;62.40;;;;;;;0.10;100.00;101965.06;21052045;28;20226;-65
2021/11/10 06:58:23;;;;;;;138.37;48.37;;;;;;;0.41;100.00;101978.31;20980291;27;21058;-67
2021/11/10 07:28:18;;;;;;;190.00;60.10;;;;;;;1.22;100.00;101966.22;20972660;27;20630;-70
2021/11/10 07:38:24;;;;;;;95.33;40.83;;;;;;;1.67;100.00;101960.97;20947927;28;20226;-71
2021/11/10 07:48:27;;;;;;;80.83;38.77;;;;;;;2.05;100.00;101960.00;20946423;28;20218;-70
2021/11/10 07:58:31;;;;;;;87.70;42.30;;;;;;;2.39;100.00;101964.25;20975438;28;20266;-67
2021/11/10 08:08:34;;;;;;;84.63;41.17;;;;;;;2.70;100.00;101964.09;20941422;28;20231;-65
2021/11/10 08:18:38;;;;;;;78.37;38.63;;;;;;;3.06;100.00;101969.13;20940606;28;20241;-70
2021/11/10 08:28:42;;;;;;;80.37;41.53;;;;;;;3.34;100.00;101953.09;20924046;28;20323;-70
2021/11/10 08:38:45;;;;;;;161.97;51.53;;;;;;;3.67;100.00;101952.78;20889367;28;20233;-65
2021/11/10 08:48:49;;;;;;;150.43;51.80;;;;;;;4.03;100.00;101940.06;20885786;28;20243;-65
2021/11/10 08:58:52;;;;;;;124.83;51.50;;;;;;;4.42;100.00;101931.66;20880914;28;20230;-65
2021/11/10 09:08:55;;;;;;;78.80;38.33;;;;;;;4.76;100.00;101917.97;20879418;28;20314;-67
2021/11/10 09:18:59;;;;;;;54.13;31.77;;;;;;;5.18;100.00;101914.66;20881987;28;20246;-64
2021/11/10 09:29:02;;;;;;;53.63;28.87;;;;;;;5.62;100.00;101899.75;20968301;28;20233;-66
2021/11/10 09:39:07;;;;;;;44.77;26.53;;;;;;;6.00;100.00;101888.47;20963943;28;20246;-67
2021/11/10 09:49:12;;;;;;;42.87;25.17;;;;;;;6.29;100.00;101882.53;20962264;28;20232;-68
2021/11/10 09:59:15;;;;;;;35.77;23.90;;;;;;;6.59;100.00;101859.78;20959472;28;20327;-66
2021/11/10 10:09:20;;;;;;;28.17;20.97;;;;;;;6.82;100.00;101852.13;20960578;28;20232;-61
2021/11/10 10:19:24;;;;;;;22.30;17.17;;;;;;;7.14;100.00;101856.63;20960626;28;20229;-61
2021/11/10 10:29:27;;;;;;;17.47;14.87;;;;;;;7.41;100.00;101850.63;20942042;28;20220;-66
2021/11/10 10:39:31;;;;;;;16.77;14.57;;;;;;;7.68;100.00;101837.50;20958732;28;20233;-68
2021/11/10 10:49:39;;;;;;;15.23;13.03;;;;;;;7.90;100.00;101833.31;20956545;28;20253;-64
2021/11/10 10:59:42;;;;;;;14.13;12.43;;;;;;;8.12;100.00;101821.13;20960996;28;20233;-70
2021/11/10 11:09:49;;;;;;;13.83;12.00;;;;;;;8.27;100.00;101802.03;20960206;28;20727;-67
2021/11/10 11:19:57;;;;;;;12.00;9.83;;;;;;;8.48;100.00;101791.66;20957590;28;20249;-63
2021/11/10 11:30:06;;;;;;;12.80;11.53;;;;;;;8.66;100.00;101769.78;20956797;28;20225;-69
2021/11/10 11:40:16;;;;;;;32.97;20.33;;;;;;;8.78;100.00;101749.88;20957243;28;20267;-70
2021/11/10 11:50:20;;;;;;;12.27;11.07;;;;;;;9.07;100.00;101740.88;20953684;28;20297;-69
2021/11/10 12:00:25;;;;;;;12.47;11.17;;;;;;;9.27;100.00;101722.41;20956146;28;20655;-66
2021/11/10 12:10:33;;;;;;;10.87;9.77;;;;;;;9.54;100.00;101693.88;20963088;28;20227;-67
2021/11/10 12:20:40;;;;;;;9.60;8.70;;;;;;;9.75;100.00;101677.03;20967869;28;20310;-62
2021/11/10 12:30:45;;;;;;;11.13;10.13;;;;;;;9.74;100.00;101676.16;20968190;28;20237;-61
2021/11/10 12:40:51;;;;;;;11.43;10.23;;;;;;;9.63;100.00;101657.06;20968925;28;20319;-61
2021/11/10 12:50:55;;;;;;;13.43;11.97;;;;;;;9.62;100.00;101650.00;20966246;28;20687;-60
2021/11/10 13:01:00;;;;;;;15.43;11.60;;;;;;;9.62;100.00;101628.66;20964767;28;20261;-60
2021/11/10 13:11:12;;;;;;;15.23;12.47;;;;;;;9.69;100.00;101639.94;20964873;28;20337;-58
2021/11/10 13:21:15;;;;;;;12.93;11.53;;;;;;;9.72;100.00;101623.84;20965585;28;20280;-61
2021/11/10 13:31:19;;;;;;;11.17;10.07;;;;;;;9.64;100.00;101615.28;20963735;28;20227;-65
2021/11/10 13:41:29;;;;;;;10.40;9.40;;;;;;;9.48;100.00;101593.69;20962813;28;20228;-59
2021/11/10 13:51:32;;;;;;;8.83;8.03;;;;;;;9.17;100.00;101593.16;20974773;28;20219;-58
2021/11/10 14:01:40;;;;;;;11.93;9.23;;;;;;;8.80;100.00;101604.31;20982569;28;20257;-58
2021/11/10 14:11:46;;;;;;;9.80;8.80;;;;;;;8.34;100.00;101602.38;20966100;28;20249;-58
2021/11/10 14:21:55;;;;;;;15.70;12.27;;;;;;;7.84;100.00;101596.97;20981642;28;20621;-58
2021/11/10 14:31:58;;;;;;;21.00;12.47;;;;;;;7.42;100.00;101583.25;20975975;28;20713;-59
2021/11/10 14:42:37;;;;;;;23.70;14.07;;;;;;;6.96;100.00;101581.09;20977116;28;20286;-60
2021/11/10 14:52:40;;;;;;;39.67;17.80;;;;;;;6.57;100.00;101570.72;20975496;28;20274;-65
2021/11/10 15:02:43;;;;;;;46.37;21.67;;;;;;;6.30;100.00;101568.81;20975016;28;20253;-64
2021/11/10 15:12:47;;;;;;;56.30;25.87;;;;;;;6.30;100.00;101568.81;20974866;28;20220;-66
2021/11/10 15:23:02;;;;;;;28.17;17.87;;;;;;;6.30;100.00;101563.50;20979262;28;20220;-65
2021/11/10 15:33:07;;;;;;;27.57;17.70;;;;;;;6.16;100.00;101560.38;20975765;28;20226;-60
2021/11/10 15:43:11;;;;;;;24.07;17.90;;;;;;;5.89;100.00;101551.34;20988003;28;20328;-62
2021/11/10 15:53:15;;;;;;;20.47;16.23;;;;;;;5.59;100.00;101556.44;21001838;28;20648;-68
2021/11/10 16:03:21;;;;;;;17.37;15.43;;;;;;;5.29;100.00;101544.81;20999819;28;20727;-67
2021/11/10 16:23:28;;;;;;;21.90;15.90;;;;;;;4.77;100.00;101544.19;21114727;27;1418221;-59
2021/11/10 16:33:32;;;;;;;24.47;17.30;;;;;;;4.55;100.00;101549.06;21134663;28;20247;-58
2021/11/10 16:43:36;;;;;;;26.87;18.77;;;;;;;4.34;100.00;101539.78;21121481;28;20253;-57
2021/11/10 16:53:40;;;;;;;24.90;18.40;;;;;;;4.19;100.00;101550.63;21118856;28;20232;-58
2021/11/10 17:03:44;;;;;;;27.60;19.37;;;;;;;4.04;100.00;101540.34;21138391;28;20249;-59
2021/11/10 17:13:47;;;;;;;34.70;22.13;;;;;;;3.78;100.00;101536.38;21138928;28;20253;-68
2021/11/10 17:23:50;;;;;;;26.77;16.37;;;;;;;3.55;100.00;101525.31;21138083;28;20308;-57
2021/11/10 17:33:54;;;;;;;30.53;17.53;;;;;;;3.43;100.00;101514.97;21085905;28;20241;-61
2021/11/10 17:54:01;;;;;;;27.57;16.20;;;;;;;3.24;100.00;101515.28;21144035;27;20560;-61
2021/11/10 18:04:05;;;;;;;31.93;17.50;;;;;;;3.19;100.00;101496.00;21208026;27;20246;-65
2021/11/10 18:14:08;;;;;;;25.87;16.43;;;;;;;3.17;100.00;101491.63;21225776;27;20234;-67
2021/11/10 18:44:08;;;;;;;40.13;22.23;;;;;;;2.57;100.00;101477.53;21158479;27;20621;-63
2021/11/10 18:54:11;;;;;;;26.10;16.47;;;;;;;2.33;100.00;101469.06;21142463;27;20307;-57
2021/11/10 19:04:17;;;;;;;37.20;21.73;;;;;;;2.14;100.00;101457.00;21123427;27;20231;-57
2021/11/10 19:24:18;;;;;;;43.47;25.33;;;;;;;2.12;100.00;101432.44;20987553;27;20942;-54
2021/11/10 19:54:15;;;;;;;45.73;26.60;;;;;;;1.91;100.00;101430.06;21072354;27;20575;-57
2021/11/10 20:04:19;;;;;;;45.93;28.00;;;;;;;2.01;100.00;101431.72;21057847;27;20223;-58
2021/11/10 20:14:23;;;;;;;40.90;25.20;;;;;;;2.21;100.00;101421.81;21057177;27;20230;-65
2021/11/10 20:24:30;;;;;;;37.67;22.87;;;;;;;2.29;100.00;101427.00;21056121;27;20270;-67
2021/11/10 20:44:32;;;;;;;39.27;22.53;;;;;;;1.85;100.00;101422.22;20983686;27;20939;-68
2021/11/10 20:54:37;;;;;;;49.50;29.53;;;;;;;1.84;100.00;101412.59;20972896;28;20227;-68
2021/11/10 21:04:41;;;;;;;51.50;30.50;;;;;;;2.05;100.00;101409.72;20972070;28;20638;-65
2021/11/10 21:14:45;;;;;;;45.30;27.47;;;;;;;2.04;100.00;101382.53;21020556;27;20313;-65
2021/11/10 21:24:49;;;;;;;44.07;26.60;;;;;;;1.93;100.00;101379.16;21054316;27;20628;-57
2021/11/10 21:34:52;;;;;;;38.10;23.57;;;;;;;1.85;100.00;101388.00;21054508;27;20246;-58
2021/11/10 22:04:58;;;;;;;38.70;23.03;;;;;;;1.90;100.00;101367.78;21059202;27;20621;-58
2021/11/10 22:15:02;;;;;;;39.13;22.27;;;;;;;1.83;100.00;101360.84;21057659;28;20227;-57
2021/11/10 22:25:06;;;;;;;36.47;21.17;;;;;;;1.85;100.00;101348.53;21056701;28;20280;-66
2021/11/10 22:35:10;;;;;;;42.43;22.67;;;;;;;1.84;100.00;101346.78;21088713;27;20235;-59
2021/11/10 22:45:15;;;;;;;39.50;20.00;;;;;;;1.74;100.00;101346.91;21055691;28;20624;-57
2021/11/10 23:15:18;;;;;;;39.50;21.00;;;;;;;1.45;100.00;101359.50;21163798;27;20377;-65
2021/11/10 23:25:22;;;;;;;46.70;24.07;;;;;;;1.51;100.00;101364.72;21141035;28;20233;-58
2021/11/10 23:35:28;;;;;;;49.43;25.07;;;;;;;1.53;100.00;101365.56;21131926;27;20221;-65
2021/11/10 23:45:32;;;;;;;40.90;21.47;;;;;;;1.56;100.00;101362.91;21139163;28;20308;-59
